Time;durP1;ratioP1;P1;durP2;ratioP2;P2;SDS_P1;SDS_P2;PMS_P1;PMS_P2;Temp;Humidity;BMP_temperature;BMP_pressure;BME280_temperature;BME280_humidity;BME280_pressure;Samples;Min_cycle;Max_cycle;Signal;HPM_P1;HPM_P2
2024/01/05 00:02:02;;;;;;;0.10;0.10;;;;;;;-146.30;100.00;58188.94;10495457;28;20461;-85
2024/01/05 00:07:09;;;;;;;0.20;0.20;;;;;;;-146.30;100.00;58188.94;10478230;28;20044;-85
2024/01/05 00:12:11;;;;;;;0.35;0.30;;;;;;;-146.30;100.00;58188.94;10477768;28;20135;-84
2024/01/05 00:17:12;;;;;;;0.40;0.35;;;;;;;-146.30;100.00;58188.94;10486655;28;20041;-84
2024/01/05 00:22:14;;;;;;;0.65;0.43;;;;;;;-146.30;100.00;58188.94;10469158;28;20068;-83
2024/01/05 00:27:16;;;;;;;0.38;0.25;;;;;;;-146.30;100.00;58188.94;10481007;28;20049;-86
2024/01/05 00:32:17;;;;;;;1.92;1.35;;;;;;;-146.30;100.00;58188.94;10477347;28;20134;-85
2024/01/05 00:37:19;;;;;;;0.52;0.52;;;;;;;-146.30;100.00;58188.94;10489200;28;20048;-85
2024/01/05 00:42:21;;;;;;;0.00;0.00;;;;;;;-146.30;100.00;58188.94;10490103;28;20143;-84
2024/01/05 00:47:23;;;;;;;0.05;0.05;;;;;;;-146.30;100.00;58188.94;10494494;28;20037;-84
2024/01/05 00:52:26;;;;;;;0.03;0.03;;;;;;;-146.30;100.00;58188.94;10496124;28;20055;-84
2024/01/05 00:57:29;;;;;;;0.35;0.22;;;;;;;-146.30;100.00;58188.94;10477546;28;20052;-83
2024/01/05 01:02:31;;;;;;;0.52;0.30;;;;;;;-146.30;100.00;58188.94;10506879;28;20050;-83
2024/01/05 01:07:33;;;;;;;0.05;0.03;;;;;;;-146.30;100.00;58188.94;10497069;28;20051;-84
2024/01/05 01:12:35;;;;;;;0.22;0.20;;;;;;;-146.30;100.00;58188.94;10462284;28;20049;-83
2024/01/05 01:17:37;;;;;;;0.20;0.10;;;;;;;-146.30;100.00;58188.94;10475852;28;20047;-83
2024/01/05 01:22:39;;;;;;;0.13;0.13;;;;;;;-146.30;100.00;58188.94;10495513;28;20115;-83
2024/01/05 01:27:41;;;;;;;0.10;0.10;;;;;;;-146.30;100.00;58188.94;10483864;28;20048;-84
2024/01/05 01:32:43;;;;;;;0.20;0.20;;;;;;;-146.30;100.00;58188.94;10504431;28;20044;-84
2024/01/05 01:37:44;;;;;;;0.90;0.30;;;;;;;-146.30;100.00;58188.94;10485806;28;20047;-83
2024/01/05 01:42:47;;;;;;;0.52;0.30;;;;;;;-146.30;100.00;58188.94;10486208;28;20486;-84
2024/01/05 01:47:50;;;;;;;1.65;0.52;;;;;;;-146.30;100.00;58188.94;10483409;28;20039;-84
2024/01/05 01:52:52;;;;;;;0.25;0.22;;;;;;;-146.30;100.00;58188.94;10488265;28;20044;-84
2024/01/05 01:57:54;;;;;;;0.13;0.10;;;;;;;-146.30;100.00;58188.94;10482873;28;20494;-84
2024/01/05 02:02:56;;;;;;;0.03;0.03;;;;;;;-146.30;100.00;58188.94;10489131;28;20040;-84
2024/01/05 02:07:58;;;;;;;0.40;0.30;;;;;;;-146.30;100.00;58188.94;10470995;28;20498;-84
2024/01/05 02:13:00;;;;;;;0.90;0.35;;;;;;;-146.30;100.00;58188.94;10484833;28;20070;-84
2024/01/05 02:18:11;;;;;;;0.10;0.10;;;;;;;-146.30;100.00;58188.94;10466516;28;20072;-83
2024/01/05 02:23:23;;;;;;;0.00;0.00;;;;;;;-146.30;100.00;58188.94;10493516;28;20051;-83
2024/01/05 02:28:25;;;;;;;0.45;0.25;;;;;;;-146.30;100.00;58188.94;10499353;28;20068;-83
2024/01/05 02:33:26;;;;;;;0.10;0.10;;;;;;;-146.30;100.00;58188.94;10498049;28;20538;-84
2024/01/05 02:38:28;;;;;;;0.35;0.20;;;;;;;-146.30;100.00;58188.94;10475614;28;20414;-84
2024/01/05 02:43:30;;;;;;;0.00;0.00;;;;;;;-146.30;100.00;58188.94;10481483;28;20131;-84
2024/01/05 02:48:32;;;;;;;7.70;0.68;;;;;;;-146.30;100.00;58188.94;10484549;28;20072;-85
2024/01/05 02:53:34;;;;;;;0.17;0.17;;;;;;;-146.30;100.00;58188.94;10505421;28;20044;-84
2024/01/05 02:58:38;;;;;;;0.00;0.00;;;;;;;-146.30;100.00;58188.94;10468163;28;20391;-84
2024/01/05 03:03:40;;;;;;;0.00;0.00;;;;;;;-146.30;100.00;58188.94;10503682;28;20048;-83
2024/01/05 03:08:45;;;;;;;0.20;0.08;;;;;;;-146.30;100.00;58188.94;10501896;28;20042;-84
2024/01/05 03:13:47;;;;;;;0.10;0.10;;;;;;;-146.30;100.00;58188.94;10467504;28;20048;-83
2024/01/05 03:18:49;;;;;;;0.10;0.10;;;;;;;-146.30;100.00;58188.94;10485636;28;20094;-84
2024/01/05 03:23:51;;;;;;;0.05;0.05;;;;;;;-146.30;100.00;58188.94;10478991;28;20488;-85
2024/01/05 03:28:53;;;;;;;1.23;1.10;;;;;;;-146.30;100.00;58188.94;10462965;28;20091;-85
2024/01/05 03:33:55;;;;;;;0.22;0.22;;;;;;;-146.30;100.00;58188.94;10481362;28;20044;-84
2024/01/05 03:38:57;;;;;;;0.65;0.43;;;;;;;-146.30;100.00;58188.94;10478051;28;20047;-85
2024/01/05 03:43:59;;;;;;;0.00;0.00;;;;;;;-146.30;100.00;58188.94;10512141;28;20037;-84
2024/01/05 03:49:00;;;;;;;0.00;0.00;;;;;;;-146.30;100.00;58188.94;10485143;28;20042;-84
2024/01/05 03:54:03;;;;;;;0.63;0.35;;;;;;;-146.30;100.00;58188.94;10478878;28;20505;-84
2024/01/05 03:59:05;;;;;;;0.52;0.10;;;;;;;-146.30;100.00;58188.94;10480191;28;20033;-84
2024/01/05 04:04:07;;;;;;;0.30;0.30;;;;;;;-146.30;100.00;58188.94;10477087;28;20044;-84
2024/01/05 04:09:09;;;;;;;0.88;0.35;;;;;;;-146.30;100.00;58188.94;10482823;28;20080;-84
2024/01/05 04:14:11;;;;;;;0.00;0.00;;;;;;;-146.30;100.00;58188.94;10509056;28;20380;-84
2024/01/05 04:19:13;;;;;;;0.08;0.08;;;;;;;-146.30;100.00;58188.94;10477533;28;20048;-84
2024/01/05 04:24:15;;;;;;;0.80;0.50;;;;;;;-146.30;100.00;58188.94;10478920;28;20047;-84
2024/01/05 04:29:17;;;;;;;0.47;0.40;;;;;;;-146.30;100.00;58188.94;10488801;28;20036;-84
2024/01/05 04:34:19;;;;;;;0.38;0.22;;;;;;;-146.30;100.00;58188.94;10483738;28;20052;-83
2024/01/05 04:39:21;;;;;;;0.00;0.00;;;;;;;-146.30;100.00;58188.94;10511400;28;20048;-84
2024/01/05 04:44:23;;;;;;;3.13;1.88;;;;;;;-146.30;100.00;58188.94;10501175;28;20055;-84
2024/01/05 04:49:26;;;;;;;0.32;0.20;;;;;;;-146.30;100.00;58188.94;10485676;28;20044;-84
2024/01/05 04:54:28;;;;;;;0.60;0.60;;;;;;;-146.30;100.00;58188.94;10505861;28;20044;-84
2024/01/05 04:59:30;;;;;;;0.17;0.05;;;;;;;-146.30;100.00;58188.94;10468461;28;20055;-84
2024/01/05 05:04:32;;;;;;;0.60;0.50;;;;;;;-146.30;100.00;58188.94;10488614;28;20048;-85
2024/01/05 05:09:33;;;;;;;1.67;1.55;;;;;;;-146.30;100.00;58188.94;10487644;28;20044;-84
2024/01/05 05:14:35;;;;;;;0.28;0.28;;;;;;;-146.30;100.00;58188.94;10501770;28;20048;-84
2024/01/05 05:19:37;;;;;;;0.05;0.05;;;;;;;-146.30;100.00;58188.94;10506799;28;20075;-84
2024/01/05 05:24:39;;;;;;;0.30;0.13;;;;;;;-146.30;100.00;58188.94;10511395;28;20062;-84
2024/01/05 05:29:40;;;;;;;0.45;0.32;;;;;;;-146.30;100.00;58188.94;10508687;28;20139;-84
2024/01/05 05:34:44;;;;;;;0.68;0.32;;;;;;;-146.30;100.00;58188.94;10488644;28;20123;-85
2024/01/05 05:39:46;;;;;;;0.00;0.00;;;;;;;-146.30;100.00;58188.94;10485196;28;20036;-84
2024/01/05 05:44:48;;;;;;;0.20;0.15;;;;;;;-146.30;100.00;58188.94;10499293;28;20449;-84
2024/01/05 05:49:49;;;;;;;0.00;0.00;;;;;;;-146.30;100.00;58188.94;10469653;28;20064;-85
2024/01/05 05:54:52;;;;;;;0.50;0.22;;;;;;;-146.30;100.00;58188.94;10472122;28;20055;-84
2024/01/05 05:59:55;;;;;;;0.17;0.17;;;;;;;-146.30;100.00;58188.94;10496466;28;20051;-85
2024/01/05 06:04:56;;;;;;;0.00;0.00;;;;;;;-146.30;100.00;58188.94;10503771;28;20052;-84
2024/01/05 06:10:01;;;;;;;0.08;0.03;;;;;;;-146.30;100.00;58188.94;10496071;28;20046;-84
2024/01/05 06:15:03;;;;;;;0.70;0.63;;;;;;;-146.30;100.00;58188.94;10483110;28;20078;-84
2024/01/05 06:20:07;;;;;;;0.00;0.00;;;;;;;-146.30;100.00;58188.94;10520401;28;20123;-84
2024/01/05 06:25:09;;;;;;;0.43;0.20;;;;;;;-146.30;100.00;58188.94;10481440;28;20144;-84
2024/01/05 06:30:11;;;;;;;0.00;0.00;;;;;;;-146.30;100.00;58188.94;10464978;28;20123;-84
2024/01/05 06:35:13;;;;;;;0.00;0.00;;;;;;;-146.30;100.00;58188.94;10528775;28;20052;-84
2024/01/05 06:40:15;;;;;;;0.17;0.17;;;;;;;-146.30;100.00;58188.94;10486562;28;20036;-83
2024/01/05 06:45:16;;;;;;;0.10;0.10;;;;;;;-146.30;100.00;58188.94;10494111;28;20052;-84
2024/01/05 06:50:18;;;;;;;0.00;0.00;;;;;;;-146.30;100.00;58188.94;10487083;28;20067;-84
2024/01/05 06:55:20;;;;;;;0.22;0.20;;;;;;;-146.30;100.00;58188.94;10502843;28;20048;-84
2024/01/05 07:00:22;;;;;;;0.10;0.10;;;;;;;-146.30;100.00;58188.94;10485543;28;20037;-84
2024/01/05 07:05:24;;;;;;;0.43;0.35;;;;;;;-146.30;100.00;58188.94;10483648;28;20052;-84
2024/01/05 07:10:27;;;;;;;0.00;0.00;;;;;;;-146.30;100.00;58188.94;10476985;28;20044;-85
2024/01/05 07:15:29;;;;;;;0.00;0.00;;;;;;;-146.30;100.00;58188.94;10494625;28;20056;-84
2024/01/05 07:20:31;;;;;;;0.00;0.00;;;;;;;-146.30;100.00;58188.94;10477457;28;20048;-85
2024/01/05 07:25:33;;;;;;;0.00;0.00;;;;;;;-146.30;100.00;58188.94;10483678;28;20506;-84
2024/01/05 07:30:38;;;;;;;0.80;0.10;;;;;;;-146.30;100.00;58188.94;10477933;28;20037;-84
2024/01/05 07:35:40;;;;;;;0.22;0.22;;;;;;;-146.30;100.00;58188.94;10493525;28;20051;-84
2024/01/05 07:40:42;;;;;;;0.00;0.00;;;;;;;-146.30;100.00;58188.94;10521044;28;20032;-84
2024/01/05 07:45:44;;;;;;;0.00;0.00;;;;;;;-146.30;100.00;58188.94;10514477;28;20136;-84
2024/01/05 07:50:46;;;;;;;0.00;0.00;;;;;;;-146.30;100.00;58188.94;10476965;28;20090;-83
2024/01/05 07:55:48;;;;;;;0.00;0.00;;;;;;;-146.30;100.00;58188.94;10460924;28;20449;-84
2024/01/05 08:00:50;;;;;;;0.00;0.00;;;;;;;-146.30;100.00;58188.94;10479841;28;20072;-83
2024/01/05 08:05:52;;;;;;;0.00;0.00;;;;;;;-146.30;100.00;58188.94;10480347;28;20033;-85
2024/01/05 08:10:54;;;;;;;0.70;0.20;;;;;;;-146.30;100.00;58188.94;10462378;28;20040;-84
2024/01/05 08:15:55;;;;;;;0.50;0.30;;;;;;;-146.30;100.00;58188.94;10490286;28;20048;-84
2024/01/05 08:20:57;;;;;;;0.00;0.00;;;;;;;-146.30;100.00;58188.94;10502044;28;20075;-84
2024/01/05 08:25:59;;;;;;;0.10;0.10;;;;;;;-146.30;100.00;58188.94;10482893;28;20036;-84
2024/01/05 08:31:01;;;;;;;0.00;0.00;;;;;;;-146.30;100.00;58188.94;10474573;28;20075;-84
2024/01/05 08:36:03;;;;;;;0.00;0.00;;;;;;;-146.30;100.00;58188.94;10496572;28;20147;-84
2024/01/05 08:41:05;;;;;;;0.00;0.00;;;;;;;-146.30;100.00;58188.94;10513333;28;20037;-83
2024/01/05 08:46:06;;;;;;;0.10;0.05;;;;;;;-146.30;100.00;58188.94;10495336;28;20471;-84
2024/01/05 08:51:08;;;;;;;0.38;0.10;;;;;;;-146.30;100.00;58188.94;10471899;28;20487;-83
2024/01/05 08:56:10;;;;;;;0.35;0.10;;;;;;;-146.30;100.00;58188.94;10490792;28;20060;-84
2024/01/05 09:01:11;;;;;;;0.00;0.00;;;;;;;-146.30;100.00;58188.94;10492769;28;20044;-84
2024/01/05 09:06:13;;;;;;;0.00;0.00;;;;;;;-146.30;100.00;58188.94;10480644;28;20062;-84
2024/01/05 09:11:16;;;;;;;0.00;0.00;;;;;;;-146.30;100.00;58188.94;10508868;28;20064;-84
2024/01/05 09:16:18;;;;;;;0.00;0.00;;;;;;;-146.30;100.00;58188.94;10458430;28;20062;-83
2024/01/05 09:21:19;;;;;;;0.25;0.20;;;;;;;-146.30;100.00;58188.94;10497875;28;20128;-84
2024/01/05 09:26:21;;;;;;;0.00;0.00;;;;;;;-146.30;100.00;58188.94;10480604;28;20115;-84
2024/01/05 09:31:24;;;;;;;0.00;0.00;;;;;;;-146.30;100.00;58188.94;10463379;28;20568;-84
2024/01/05 09:36:26;;;;;;;0.00;0.00;;;;;;;-146.30;100.00;58188.94;10464854;28;20126;-84
2024/01/05 09:41:28;;;;;;;0.00;0.00;;;;;;;-146.30;100.00;58188.94;10490605;28;20045;-83
2024/01/05 09:46:30;;;;;;;0.00;0.00;;;;;;;-146.30;100.00;58188.94;10507292;28;20147;-84
2024/01/05 09:51:32;;;;;;;0.00;0.00;;;;;;;-146.30;100.00;58188.94;10465278;28;20084;-85
2024/01/05 09:56:35;;;;;;;0.00;0.00;;;;;;;-146.30;100.00;58188.94;10474005;28;20048;-85
2024/01/05 10:01:38;;;;;;;0.00;0.00;;;;;;;-146.30;100.00;58188.94;10500001;28;20052;-85
2024/01/05 10:06:40;;;;;;;0.00;0.00;;;;;;;-146.30;100.00;58188.94;10472836;28;20049;-83
2024/01/05 10:11:42;;;;;;;1.08;0.28;;;;;;;-146.30;100.00;58188.94;10510172;28;20041;-84
2024/01/05 10:16:45;;;;;;;0.00;0.00;;;;;;;-146.30;100.00;58188.94;10504778;28;20043;-84
2024/01/05 10:21:47;;;;;;;0.00;0.00;;;;;;;-146.30;100.00;58188.94;10492966;28;20041;-84
2024/01/05 10:27:02;;;;;;;0.00;0.00;;;;;;;-146.30;100.00;58188.94;10472893;28;20082;-84
2024/01/05 10:32:18;;;;;;;0.00;0.00;;;;;;;-146.30;100.00;58188.94;10504232;28;20041;-84
2024/01/05 10:37:21;;;;;;;0.00;0.00;;;;;;;-146.30;100.00;58188.94;10504594;28;20136;-85
2024/01/05 10:42:29;;;;;;;0.13;0.13;;;;;;;-146.30;100.00;58188.94;10511222;28;20044;-84
2024/01/05 10:47:34;;;;;;;0.00;0.00;;;;;;;-146.30;100.00;58188.94;10475830;28;20045;-83
2024/01/05 10:52:37;;;;;;;0.00;0.00;;;;;;;-146.30;100.00;58188.94;10482340;28;20045;-83
2024/01/05 10:57:41;;;;;;;0.43;0.03;;;;;;;-146.30;100.00;58188.94;10495046;28;20048;-82
2024/01/05 11:02:48;;;;;;;0.10;0.10;;;;;;;-146.30;100.00;58188.94;10496683;28;20063;-85
2024/01/05 11:07:52;;;;;;;0.00;0.00;;;;;;;-146.30;100.00;58188.94;10509817;28;20068;-83
2024/01/05 11:13:24;;;;;;;0.00;0.00;;;;;;;-146.30;100.00;58188.94;10478599;28;20165;-84
2024/01/05 11:18:57;;;;;;;0.00;0.00;;;;;;;-146.30;100.00;58188.94;10477133;28;20044;-82
2024/01/05 11:24:00;;;;;;;0.00;0.00;;;;;;;-146.30;100.00;58188.94;10460778;28;20128;-84
2024/01/05 11:29:02;;;;;;;0.00;0.00;;;;;;;-146.30;100.00;58188.94;10449380;28;20139;-83
2024/01/05 11:34:04;;;;;;;0.00;0.00;;;;;;;-146.30;100.00;58188.94;10490498;28;20056;-83
2024/01/05 11:39:06;;;;;;;0.20;0.10;;;;;;;-146.30;100.00;58188.94;10492027;28;20051;-82
2024/01/05 11:44:35;;;;;;;0.00;0.00;;;;;;;-146.30;100.00;58188.94;10485515;28;20135;-84
2024/01/05 11:49:38;;;;;;;0.20;0.20;;;;;;;-146.30;100.00;58188.94;10500884;28;20052;-85
2024/01/05 11:54:41;;;;;;;0.00;0.00;;;;;;;-146.30;100.00;58188.94;10461854;28;20048;-85
2024/01/05 11:59:43;;;;;;;0.00;0.00;;;;;;;-146.30;100.00;58188.94;10479311;28;20047;-85
2024/01/05 12:04:48;;;;;;;0.00;0.00;;;;;;;-146.30;100.00;58188.94;10494844;28;20143;-84
2024/01/05 12:09:53;;;;;;;0.10;0.10;;;;;;;-146.30;100.00;58188.94;10497345;28;20075;-84
2024/01/05 12:15:06;;;;;;;1.95;0.25;;;;;;;-146.30;100.00;58188.94;10488213;28;20193;-84
2024/01/05 12:20:10;;;;;;;0.00;0.00;;;;;;;-146.30;100.00;58188.94;10491952;28;20045;-84
2024/01/05 12:25:12;;;;;;;0.25;0.10;;;;;;;-146.30;100.00;58188.94;10459241;28;20048;-84
2024/01/05 12:30:15;;;;;;;0.10;0.10;;;;;;;-146.30;100.00;58188.94;10495173;28;20064;-84
2024/01/05 12:35:17;;;;;;;0.00;0.00;;;;;;;-146.30;100.00;58188.94;10505334;28;20040;-85
2024/01/05 12:40:23;;;;;;;0.00;0.00;;;;;;;-146.30;100.00;58188.94;10476675;28;20071;-85
2024/01/05 12:45:26;;;;;;;0.00;0.00;;;;;;;-146.30;100.00;58188.94;10487799;28;20499;-86
2024/01/05 12:50:30;;;;;;;0.17;0.10;;;;;;;-146.30;100.00;58188.94;10470707;28;20155;-85
2024/01/05 12:55:33;;;;;;;0.00;0.00;;;;;;;-146.30;100.00;58188.94;10478458;28;20099;-84
2024/01/05 13:00:46;;;;;;;0.00;0.00;;;;;;;-146.30;100.00;58188.94;10478131;28;20044;-83
2024/01/05 13:05:48;;;;;;;0.30;0.30;;;;;;;-146.30;100.00;58188.94;10478990;28;20040;-84
2024/01/05 13:10:51;;;;;;;0.70;0.43;;;;;;;-146.30;100.00;58188.94;10497396;28;20041;-84
2024/01/05 13:15:53;;;;;;;0.00;0.00;;;;;;;-146.30;100.00;58188.94;10473324;28;20056;-85
2024/01/05 13:20:55;;;;;;;0.00;0.00;;;;;;;-146.30;100.00;58188.94;10494562;28;20060;-84
2024/01/05 13:25:58;;;;;;;0.10;0.10;;;;;;;-146.30;100.00;58188.94;10502129;28;20510;-84
2024/01/05 13:31:00;;;;;;;0.35;0.17;;;;;;;-146.30;100.00;58188.94;10475030;28;20072;-83
2024/01/05 13:36:02;;;;;;;0.20;0.20;;;;;;;-146.30;100.00;58188.94;10475536;28;20105;-83
2024/01/05 13:41:04;;;;;;;1.90;0.63;;;;;;;-146.30;100.00;58188.94;10512197;28;20086;-86
2024/01/05 13:46:07;;;;;;;0.03;0.03;;;;;;;-146.30;100.00;58188.94;10485010;28;20047;-86
2024/01/05 13:51:08;;;;;;;0.10;0.08;;;;;;;-146.30;100.00;58188.94;10501995;28;20040;-83
2024/01/05 13:56:10;;;;;;;0.00;0.00;;;;;;;-146.30;100.00;58188.94;10496943;28;20071;-86
2024/01/05 14:01:12;;;;;;;0.00;0.00;;;;;;;-146.30;100.00;58188.94;10505417;28;20209;-86
2024/01/05 14:06:16;;;;;;;0.20;0.05;;;;;;;-146.30;100.00;58188.94;10503293;28;20044;-87
2024/01/05 14:11:18;;;;;;;0.00;0.00;;;;;;;-146.30;100.00;58188.94;10487802;28;20110;-88
2024/01/05 14:16:20;;;;;;;0.77;0.10;;;;;;;-146.30;100.00;58188.94;10495854;28;20048;-87
2024/01/05 14:21:28;;;;;;;0.00;0.00;;;;;;;-146.30;100.00;58188.94;10473778;28;20049;-88
2024/01/05 14:26:30;;;;;;;0.10;0.10;;;;;;;-146.30;100.00;58188.94;10486406;28;20048;-88
2024/01/05 14:31:35;;;;;;;0.22;0.22;;;;;;;-146.30;100.00;58188.94;10501151;28;20072;-88
2024/01/05 14:36:37;;;;;;;0.17;0.17;;;;;;;-146.30;100.00;58188.94;10464352;28;20068;-88
2024/01/05 14:41:39;;;;;;;0.20;0.20;;;;;;;-146.30;100.00;58188.94;10487721;28;20471;-88
2024/01/05 14:46:41;;;;;;;1.38;0.55;;;;;;;-146.30;100.00;58188.94;10486090;28;20075;-87
2024/01/05 14:51:43;;;;;;;0.25;0.20;;;;;;;-146.30;100.00;58188.94;10510153;28;20055;-86
2024/01/05 14:56:45;;;;;;;0.05;0.05;;;;;;;-146.30;100.00;58188.94;10477951;28;20053;-86
2024/01/05 15:01:47;;;;;;;1.35;0.32;;;;;;;-146.30;100.00;58188.94;10496258;28;20044;-85
2024/01/05 15:06:48;;;;;;;0.20;0.20;;;;;;;-146.30;100.00;58188.94;10462963;28;20510;-87
2024/01/05 15:11:53;;;;;;;0.20;0.20;;;;;;;-146.30;100.00;58188.94;10496353;28;20071;-90
2024/01/05 15:16:55;;;;;;;1.63;0.63;;;;;;;-146.30;100.00;58188.94;10491223;28;20044;-85
2024/01/05 15:21:57;;;;;;;0.47;0.38;;;;;;;-146.30;100.00;58188.94;10476574;28;20071;-86
2024/01/05 15:26:59;;;;;;;0.22;0.17;;;;;;;-146.30;100.00;58188.94;10504984;28;20064;-86
2024/01/05 15:32:01;;;;;;;0.10;0.10;;;;;;;-146.30;100.00;58188.94;10505214;28;20067;-86
2024/01/05 15:37:03;;;;;;;0.68;0.45;;;;;;;-146.30;100.00;58188.94;10458897;28;20175;-86
2024/01/05 15:42:05;;;;;;;0.00;0.00;;;;;;;-146.30;100.00;58188.94;10480980;28;20036;-87
2024/01/05 15:47:07;;;;;;;0.00;0.00;;;;;;;-146.30;100.00;58188.94;10487236;28;20067;-87
2024/01/05 15:52:09;;;;;;;1.38;0.40;;;;;;;-146.30;100.00;58188.94;10467671;28;20040;-87
2024/01/05 15:57:15;;;;;;;0.30;0.28;;;;;;;-146.30;100.00;58188.94;10498097;28;20047;-86
2024/01/05 16:02:17;;;;;;;0.00;0.00;;;;;;;-146.30;100.00;58188.94;10495170;28;20040;-86
2024/01/05 16:07:19;;;;;;;3.08;0.70;;;;;;;-146.30;100.00;58188.94;10475029;28;20097;-86
2024/01/05 16:12:20;;;;;;;0.03;0.03;;;;;;;-146.30;100.00;58188.94;10496246;28;20079;-86
2024/01/05 16:17:22;;;;;;;0.20;0.15;;;;;;;-146.30;100.00;58188.94;10482457;28;20113;-85
2024/01/05 16:22:28;;;;;;;0.38;0.20;;;;;;;-146.30;100.00;58188.94;10479127;28;20056;-84
2024/01/05 16:27:31;;;;;;;0.20;0.20;;;;;;;-146.30;100.00;58188.94;10515605;28;20048;-84
2024/01/05 16:32:39;;;;;;;0.70;0.30;;;;;;;-146.30;100.00;58188.94;10468921;28;20047;-85
2024/01/05 16:37:44;;;;;;;0.35;0.30;;;;;;;-146.30;100.00;58188.94;10510238;28;20098;-85
2024/01/05 16:42:48;;;;;;;0.65;0.30;;;;;;;-146.30;100.00;58188.94;10504369;28;20068;-85
2024/01/05 16:47:53;;;;;;;0.30;0.17;;;;;;;-146.30;100.00;58188.94;10477156;28;20044;-85
2024/01/05 16:52:57;;;;;;;1.17;0.73;;;;;;;-146.30;100.00;58188.94;10505837;28;20041;-85
2024/01/05 16:57:59;;;;;;;0.80;0.65;;;;;;;-146.30;100.00;58188.94;10501853;28;20084;-86
2024/01/05 17:03:02;;;;;;;2.13;0.50;;;;;;;-146.30;100.00;58188.94;10476505;28;20080;-87
2024/01/05 17:08:07;;;;;;;0.10;0.10;;;;;;;-146.30;100.00;58188.94;10510736;28;20476;-87
2024/01/05 17:13:09;;;;;;;0.88;0.80;;;;;;;-146.30;100.00;58188.94;10469957;28;20044;-85
2024/01/05 17:18:11;;;;;;;1.25;0.68;;;;;;;-146.30;100.00;58188.94;10490023;28;20135;-85
2024/01/05 17:23:14;;;;;;;0.98;0.40;;;;;;;-146.30;100.00;58188.94;10494377;28;20044;-85
2024/01/05 17:28:18;;;;;;;1.23;0.40;;;;;;;-146.30;100.00;58188.94;10522189;28;20048;-85
2024/01/05 17:33:20;;;;;;;0.22;0.20;;;;;;;-146.30;100.00;58188.94;10498243;28;20046;-85
2024/01/05 17:38:21;;;;;;;0.47;0.47;;;;;;;-146.30;100.00;58188.94;10490955;28;20056;-85
2024/01/05 17:43:23;;;;;;;0.47;0.32;;;;;;;-146.30;100.00;58188.94;10495498;28;20072;-85
2024/01/05 17:48:27;;;;;;;1.15;0.88;;;;;;;-146.30;100.00;58188.94;10514796;28;20048;-87
2024/01/05 17:53:30;;;;;;;0.28;0.28;;;;;;;-146.30;100.00;58188.94;10492334;28;20045;-85
2024/01/05 17:58:31;;;;;;;0.90;0.88;;;;;;;-146.30;100.00;58188.94;10489211;28;20051;-85
2024/01/05 18:03:33;;;;;;;1.00;0.85;;;;;;;-146.30;100.00;58188.94;10480424;28;20086;-89
2024/01/05 18:08:40;;;;;;;0.20;0.20;;;;;;;-146.30;100.00;58188.94;10495955;28;20420;-84
2024/01/05 18:13:42;;;;;;;0.08;0.03;;;;;;;-146.30;100.00;58188.94;10484329;28;20406;-85
2024/01/05 18:18:46;;;;;;;0.00;0.00;;;;;;;-146.30;100.00;58188.94;10497565;28;20487;-87
2024/01/05 18:23:54;;;;;;;0.35;0.20;;;;;;;-146.30;100.00;58188.94;10474278;28;20047;-86
2024/01/05 18:29:00;;;;;;;0.20;0.20;;;;;;;-146.30;100.00;58188.94;10486525;28;20045;-86
2024/01/05 18:34:12;;;;;;;2.75;1.13;;;;;;;-146.30;100.00;58188.94;10503682;28;20044;-86
2024/01/05 18:39:14;;;;;;;0.75;0.32;;;;;;;-146.30;100.00;58188.94;10500226;28;20051;-85
2024/01/05 18:44:16;;;;;;;0.65;0.40;;;;;;;-146.30;100.00;58188.94;10498803;28;20041;-85
2024/01/05 18:49:18;;;;;;;0.28;0.20;;;;;;;-146.30;100.00;58188.94;10483972;28;20056;-84
2024/01/05 18:54:21;;;;;;;0.28;0.20;;;;;;;-146.30;100.00;58188.94;10492201;28;20041;-84
2024/01/05 18:59:23;;;;;;;0.10;0.10;;;;;;;-146.30;100.00;58188.94;10476089;28;20052;-85
2024/01/05 19:04:27;;;;;;;0.32;0.30;;;;;;;-146.30;100.00;58188.94;10495540;28;20548;-84
2024/01/05 19:09:29;;;;;;;0.38;0.20;;;;;;;-146.30;100.00;58188.94;10488805;28;20059;-84
2024/01/05 19:14:32;;;;;;;0.35;0.35;;;;;;;-146.30;100.00;58188.94;10505191;28;20131;-87
2024/01/05 19:19:37;;;;;;;0.45;0.32;;;;;;;-146.30;100.00;58188.94;10493395;28;20056;-85
2024/01/05 19:24:40;;;;;;;0.28;0.28;;;;;;;-146.30;100.00;58188.94;10520328;28;20427;-85
2024/01/05 19:29:42;;;;;;;3.00;0.40;;;;;;;-146.30;100.00;58188.94;10551485;28;20039;-85
2024/01/05 19:34:44;;;;;;;0.10;0.10;;;;;;;-146.30;100.00;58188.94;10488098;28;20052;-85
2024/01/05 19:39:46;;;;;;;0.57;0.43;;;;;;;-146.30;100.00;58188.94;10483522;28;20040;-84
2024/01/05 19:44:48;;;;;;;1.02;0.45;;;;;;;-146.30;100.00;58188.94;10498224;28;20078;-84
2024/01/05 19:49:50;;;;;;;0.17;0.10;;;;;;;-146.30;100.00;58188.94;10487531;28;20512;-84
2024/01/05 19:54:53;;;;;;;0.00;0.00;;;;;;;-146.30;100.00;58188.94;10501566;28;20151;-87
2024/01/05 19:59:55;;;;;;;0.32;0.32;;;;;;;-146.30;100.00;58188.94;10475628;28;20132;-85
2024/01/05 20:04:57;;;;;;;0.38;0.38;;;;;;;-146.30;100.00;58188.94;10496654;28;20075;-85
2024/01/05 20:09:58;;;;;;;0.65;0.52;;;;;;;-146.30;100.00;58188.94;10488920;28;20542;-85
2024/01/05 20:15:00;;;;;;;0.38;0.28;;;;;;;-146.30;100.00;58188.94;10489606;28;20131;-85
2024/01/05 20:20:04;;;;;;;0.32;0.32;;;;;;;-146.30;100.00;58188.94;10489364;28;20041;-85
2024/01/05 20:25:07;;;;;;;0.00;0.00;;;;;;;-146.30;100.00;58188.94;10479282;28;20159;-84
2024/01/05 20:30:12;;;;;;;0.30;0.28;;;;;;;-146.30;100.00;58188.94;10465955;28;20052;-85
2024/01/05 20:35:14;;;;;;;0.25;0.20;;;;;;;-146.30;100.00;58188.94;10479358;28;20059;-85
2024/01/05 20:40:17;;;;;;;0.10;0.10;;;;;;;-146.30;100.00;58188.94;10477152;28;20098;-86
2024/01/05 20:45:19;;;;;;;0.30;0.30;;;;;;;-146.30;100.00;58188.94;10496739;28;20062;-84
2024/01/05 20:50:21;;;;;;;0.22;0.20;;;;;;;-146.30;100.00;58188.94;10501142;28;20051;-85
2024/01/05 20:55:23;;;;;;;0.28;0.28;;;;;;;-146.30;100.00;58188.94;10512222;28;20040;-85
2024/01/05 21:00:24;;;;;;;0.40;0.08;;;;;;;-146.30;100.00;58188.94;10460308;28;20049;-85
2024/01/05 21:05:26;;;;;;;0.32;0.22;;;;;;;-146.30;100.00;58188.94;10495662;28;20430;-85
2024/01/05 21:10:28;;;;;;;1.50;0.88;;;;;;;-146.30;100.00;58188.94;10486266;28;20410;-85
2024/01/05 21:15:30;;;;;;;0.77;0.57;;;;;;;-146.30;100.00;58188.94;10497910;28;20044;-85
2024/01/05 21:20:32;;;;;;;0.20;0.15;;;;;;;-146.30;100.00;58188.94;10499898;28;20076;-85
2024/01/05 21:25:34;;;;;;;0.00;0.00;;;;;;;-146.30;100.00;58188.94;10465855;28;20098;-85
2024/01/05 21:30:36;;;;;;;0.00;0.00;;;;;;;-146.30;100.00;58188.94;10468997;28;20156;-84
2024/01/05 21:35:37;;;;;;;0.95;0.28;;;;;;;-146.30;100.00;58188.94;10490916;28;20102;-85
2024/01/05 21:40:39;;;;;;;0.10;0.10;;;;;;;-146.30;100.00;58188.94;10479267;28;20119;-85
2024/01/05 21:45:41;;;;;;;0.10;0.10;;;;;;;-146.30;100.00;58188.94;10500295;28;20048;-85
2024/01/05 21:50:44;;;;;;;0.30;0.22;;;;;;;-146.30;100.00;58188.94;10499118;28;20385;-85
2024/01/05 21:55:46;;;;;;;0.40;0.22;;;;;;;-146.30;100.00;58188.94;10498159;28;20058;-86
2024/01/05 22:00:47;;;;;;;0.82;0.55;;;;;;;-146.30;100.00;58188.94;10483001;28;20063;-85
2024/01/05 22:05:49;;;;;;;0.38;0.35;;;;;;;-146.30;100.00;58188.94;10498933;28;20048;-85
2024/01/05 22:10:51;;;;;;;0.82;0.50;;;;;;;-146.30;100.00;58188.94;10471389;28;20052;-85
2024/01/05 22:15:54;;;;;;;0.60;0.60;;;;;;;-146.30;100.00;58188.94;10498980;28;20488;-86
2024/01/05 22:20:56;;;;;;;1.13;0.75;;;;;;;-146.30;100.00;58188.94;10491342;28;20451;-86
2024/01/05 22:25:57;;;;;;;0.35;0.20;;;;;;;-146.30;100.00;58188.94;10482696;28;20131;-86
2024/01/05 22:31:00;;;;;;;0.40;0.20;;;;;;;-146.30;100.00;58188.94;10497478;28;20123;-86
2024/01/05 22:36:08;;;;;;;0.20;0.20;;;;;;;-146.30;100.00;58188.94;10502893;28;20406;-85
2024/01/05 22:41:11;;;;;;;0.25;0.25;;;;;;;-146.30;100.00;58188.94;10514289;28;20063;-85